Time;durP1;ratioP1;P1;durP2;ratioP2;P2;SDS_P1;SDS_P2;PMS_P1;PMS_P2;Temp;Humidity;BMP_temperature;BMP_pressure;BME280_temperature;BME280_humidity;BME280_pressure;Samples;Min_cycle;Max_cycle;Signal;HPM_P1;HPM_P2
2023/03/08 00:00:33;;;;;;;;;;;;;;;;;;6094296;23;19913;-79
2023/03/08 00:02:59;;;;;;;;;;;;;;;;;;6089332;23;19915;-79
2023/03/08 00:05:25;;;;;;;;;;;;;;;;;;6101250;23;19952;-80
2023/03/08 00:07:50;;;;;;;;;;;;;;;;;;6102671;23;19909;-81
2023/03/08 00:10:16;;;;;;;;;;;;;;;;;;6126864;23;19968;-79
2023/03/08 00:12:41;;;;;;;;;;;;;;;;;;6128141;23;19964;-81
2023/03/08 00:15:07;;;;;;;;;;;;;;;;;;6128323;23;20243;-81
2023/03/08 00:17:32;;;;;;;;;;;;;;;;;;6126919;23;19919;-80
2023/03/08 00:19:57;;;;;;;;;;;;;;;;;;6130876;23;19995;-80
2023/03/08 00:22:23;;;;;;;;;;;;;;;;;;6130689;23;19913;-80
2023/03/08 00:24:48;;;;;;;;;;;;;;;;;;6130506;23;19909;-81
2023/03/08 00:27:13;;;;;;;;;;;;;;;;;;6133161;23;19909;-80
2023/03/08 00:29:39;;;;;;;;;;;;;;;;;;6133591;23;19945;-81
2023/03/08 00:32:04;;;;;;;;;;;;;;;;;;6133112;23;20508;-80
2023/03/08 00:34:30;;;;;;;;;;;;;;;;;;6129452;23;19908;-80
2023/03/08 00:36:55;;;;;;;;;;;;;;;;;;6128789;23;20271;-82
2023/03/08 00:39:20;;;;;;;;;;;;;;;;;;6127088;23;19937;-79
2023/03/08 00:41:46;;;;;;;;;;;;;;;;;;6129259;23;20314;-81
2023/03/08 00:44:12;;;;;;;;;;;;;;;;;;6129459;23;19936;-80
2023/03/08 00:46:37;;;;;;;;;;;;;;;;;;6132710;23;19913;-80
2023/03/08 00:49:03;;;;;;;;;;;;;;;;;;6139495;23;20287;-81
2023/03/08 00:51:29;;;;;;;;;;;;;;;;;;6133738;23;20312;-80
2023/03/08 00:53:54;;;;;;;;;;;;;;;;;;6132286;23;19960;-81
2023/03/08 00:56:20;;;;;;;;;;;;;;;;;;6130640;23;19908;-81
2023/03/08 00:58:45;;;;;;;;;;;;;;;;;;6131833;23;19963;-81
2023/03/08 01:01:10;;;;;;;;;;;;;;;;;;6131446;23;19929;-81
2023/03/08 01:03:36;;;;;;;;;;;;;;;;;;6130539;23;19909;-81
2023/03/08 01:06:01;;;;;;;;;;;;;;;;;;6127646;23;19928;-81
2023/03/08 01:08:26;;;;;;;;;;;;;;;;;;6127311;23;19960;-80
2023/03/08 01:10:52;;;;;;;;;;;;;;;;;;6127623;23;19913;-81
2023/03/08 01:13:17;;;;;;;;;;;;;;;;;;6126224;23;20287;-80
2023/03/08 01:15:43;;;;;;;;;;;;;;;;;;6124843;23;19937;-80
2023/03/08 01:18:08;;;;;;;;;;;;;;;;;;6126434;23;19915;-80
2023/03/08 01:20:33;;;;;;;;;;;;;;;;;;6126924;23;19909;-80
2023/03/08 01:23:01;;;;;;;;;;;;;;;;;;6125703;23;19929;-80
2023/03/08 01:25:26;;;;;;;;;;;;;;;;;;6124798;23;19916;-80
2023/03/08 01:27:51;;;;;;;;;;;;;;;;;;6125124;23;20387;-79
2023/03/08 01:30:17;;;;;;;;;;;;;;;;;;6124917;23;19920;-80
2023/03/08 01:32:42;;;;;;;;;;;;;;;;;;6124912;23;19932;-80
2023/03/08 01:35:08;;;;;;;;;;;;;;;;;;6126237;23;20298;-80
2023/03/08 01:37:33;;;;;;;;;;;;;;;;;;6126898;23;19905;-80
2023/03/08 01:39:58;;;;;;;;;;;;;;;;;;6125114;23;19908;-80
2023/03/08 01:42:24;;;;;;;;;;;;;;;;;;6127074;23;20361;-80
2023/03/08 01:44:49;;;;;;;;;;;;;;;;;;6128378;23;20331;-80
2023/03/08 01:47:15;;;;;;;;;;;;;;;;;;6127448;23;19932;-80
2023/03/08 01:49:58;;;;;;;;;;;;;;;;;;6102702;23;19913;-80
2023/03/08 01:52:23;;;;;;;;;;;;;;;;;;6128740;23;19909;-79
2023/03/08 01:54:50;;;;;;;;;;;;;;;;;;6128617;23;20339;-80
2023/03/08 01:57:15;;;;;;;;;;;;;;;;;;6128485;23;19909;-80
2023/03/08 01:59:41;;;;;;;;;;;;;;;;;;6127210;23;20349;-80
2023/03/08 02:02:06;;;;;;;;;;;;;;;;;;6126639;23;19909;-80
2023/03/08 02:04:32;;;;;;;;;;;;;;;;;;6128264;23;19914;-80
2023/03/08 02:06:58;;;;;;;;;;;;;;;;;;6127593;23;19916;-79
2023/03/08 02:09:24;;;;;;;;;;;;;;;;;;6128061;23;19959;-79
2023/03/08 02:11:51;;;;;;;;;;;;;;;;;;6127779;23;19999;-80
2023/03/08 02:14:16;;;;;;;;;;;;;;;;;;6103356;23;20247;-79
2023/03/08 02:16:45;;;;;;;;;;;;;;;;;;6127131;23;19920;-80
2023/03/08 02:19:10;;;;;;;;;;;;;;;;;;6127299;23;19909;-79
2023/03/08 02:21:35;;;;;;;;;;;;;;;;;;6127153;23;20331;-80
2023/03/08 02:24:01;;;;;;;;;;;;;;;;;;6128139;23;19909;-80
2023/03/08 02:26:26;;;;;;;;;;;;;;;;;;6126749;23;19909;-80
2023/03/08 02:28:51;;;;;;;;;;;;;;;;;;6127188;23;19951;-81
2023/03/08 02:31:19;;;;;;;;;;;;;;;;;;6126390;23;19920;-79
2023/03/08 02:33:45;;;;;;;;;;;;;;;;;;6125963;23;19913;-78
2023/03/08 02:36:10;;;;;;;;;;;;;;;;;;6126103;23;19959;-79
2023/03/08 02:38:36;;;;;;;;;;;;;;;;;;6126224;23;19909;-79
2023/03/08 02:41:01;;;;;;;;;;;;;;;;;;6128367;23;19909;-79
2023/03/08 02:43:26;;;;;;;;;;;;;;;;;;6127411;23;19981;-80
2023/03/08 02:45:52;;;;;;;;;;;;;;;;;;6128987;23;19909;-79
2023/03/08 02:48:17;;;;;;;;;;;;;;;;;;6130453;23;19932;-80
2023/03/08 02:50:42;;;;;;;;;;;;;;;;;;6137734;23;19922;-80
2023/03/08 02:53:08;;;;;;;;;;;;;;;;;;6135761;23;20358;-79
2023/03/08 02:55:36;;;;;;;;;;;;;;;;;;6147831;23;19909;-80
2023/03/08 02:58:07;;;;;;;;;;;;;;;;;;6153503;23;19913;-80
2023/03/08 03:00:32;;;;;;;;;;;;;;;;;;6154396;23;19952;-80
2023/03/08 03:02:58;;;;;;;;;;;;;;;;;;6154013;23;19901;-79
2023/03/08 03:05:25;;;;;;;;;;;;;;;;;;6152911;23;19993;-79
2023/03/08 03:07:50;;;;;;;;;;;;;;;;;;6152381;23;19913;-80
2023/03/08 03:10:18;;;;;;;;;;;;;;;;;;6153079;23;19916;-80
2023/03/08 03:12:43;;;;;;;;;;;;;;;;;;6151761;23;19949;-81
2023/03/08 03:15:13;;;;;;;;;;;;;;;;;;6130847;23;20235;-79
2023/03/08 03:17:40;;;;;;;;;;;;;;;;;;6126915;23;19912;-79
2023/03/08 03:20:05;;;;;;;;;;;;;;;;;;6126579;23;19964;-79
2023/03/08 03:22:30;;;;;;;;;;;;;;;;;;6126776;23;19905;-80
2023/03/08 03:24:56;;;;;;;;;;;;;;;;;;6125456;23;19932;-79
2023/03/08 03:27:21;;;;;;;;;;;;;;;;;;6126317;23;19909;-79
2023/03/08 03:29:47;;;;;;;;;;;;;;;;;;6126591;23;19916;-79
2023/03/08 03:32:15;;;;;;;;;;;;;;;;;;6126910;23;19916;-79
2023/03/08 03:34:40;;;;;;;;;;;;;;;;;;6126790;23;19909;-80
2023/03/08 03:37:07;;;;;;;;;;;;;;;;;;6126814;23;19915;-79
2023/03/08 03:39:33;;;;;;;;;;;;;;;;;;6127697;23;20383;-81
2023/03/08 03:41:59;;;;;;;;;;;;;;;;;;6128997;23;19909;-79
2023/03/08 03:44:25;;;;;;;;;;;;;;;;;;6128292;23;19916;-81
2023/03/08 03:46:50;;;;;;;;;;;;;;;;;;6127994;23;19926;-79
2023/03/08 03:49:21;;;;;;;;;;;;;;;;;;6129294;23;19994;-80
2023/03/08 03:51:46;;;;;;;;;;;;;;;;;;6127777;23;19913;-79
2023/03/08 03:54:20;;;;;;;;;;;;;;;;;;6128708;23;20327;-79
2023/03/08 03:56:46;;;;;;;;;;;;;;;;;;6127459;23;19932;-79
2023/03/08 03:59:15;;;;;;;;;;;;;;;;;;6126057;23;20224;-79
2023/03/08 04:01:40;;;;;;;;;;;;;;;;;;6127561;23;19983;-79
2023/03/08 04:04:16;;;;;;;;;;;;;;;;;;6128878;23;19927;-78
2023/03/08 04:06:43;;;;;;;;;;;;;;;;;;6131761;23;20106;-79
2023/03/08 04:09:11;;;;;;;;;;;;;;;;;;6139562;23;20315;-80
2023/03/08 04:11:37;;;;;;;;;;;;;;;;;;6145469;23;20035;-79
2023/03/08 04:14:03;;;;;;;;;;;;;;;;;;6137867;23;19909;-78
2023/03/08 04:16:29;;;;;;;;;;;;;;;;;;6127062;23;20278;-80
2023/03/08 04:18:56;;;;;;;;;;;;;;;;;;6124847;23;19909;-79
2023/03/08 04:21:22;;;;;;;;;;;;;;;;;;6124782;23;20354;-79
2023/03/08 04:23:47;;;;;;;;;;;;;;;;;;6124263;23;19909;-79
2023/03/08 04:26:12;;;;;;;;;;;;;;;;;;6124478;23;20007;-79
2023/03/08 04:28:38;;;;;;;;;;;;;;;;;;6124507;23;19909;-78
2023/03/08 04:31:03;;;;;;;;;;;;;;;;;;6126351;23;19912;-79
2023/03/08 04:33:29;;;;;;;;;;;;;;;;;;6124350;23;19916;-79
2023/03/08 04:35:54;;;;;;;;;;;;;;;;;;6125956;23;19912;-79
2023/03/08 04:38:22;;;;;;;;;;;;;;;;;;6124122;23;19909;-79
2023/03/08 04:44:01;;;;;;;;;;;;;;;;;;6122572;23;19980;-80
2023/03/08 04:46:48;;;;;;;;;;;;;;;;;;6124557;23;19963;-79
2023/03/08 04:49:19;;;;;;;;;;;;;;;;;;6100226;23;20243;-79
2023/03/08 04:51:50;;;;;;;;;;;;;;;;;;6100263;23;19913;-78
2023/03/08 04:54:15;;;;;;;;;;;;;;;;;;6124653;23;20228;-79
2023/03/08 04:56:46;;;;;;;;;;;;;;;;;;6125495;23;20323;-79
2023/03/08 04:59:13;;;;;;;;;;;;;;;;;;6124909;23;19996;-79
2023/03/08 05:01:38;;;;;;;;;;;;;;;;;;6124427;23;19941;-80
2023/03/08 05:04:04;;;;;;;;;;;;;;;;;;6124399;23;19913;-80
2023/03/08 05:06:35;;;;;;;;;;;;;;;;;;6125647;23;19909;-79
2023/03/08 05:09:00;;;;;;;;;;;;;;;;;;6125308;23;19932;-79
2023/03/08 05:11:25;;;;;;;;;;;;;;;;;;6124800;23;19913;-80
2023/03/08 05:13:51;;;;;;;;;;;;;;;;;;6125392;23;19913;-80
2023/03/08 05:16:17;;;;;;;;;;;;;;;;;;6125808;23;20286;-79
2023/03/08 05:18:43;;;;;;;;;;;;;;;;;;6126812;23;19912;-79
2023/03/08 05:21:08;;;;;;;;;;;;;;;;;;6102587;23;20295;-80
2023/03/08 05:23:34;;;;;;;;;;;;;;;;;;6127935;23;19909;-80
2023/03/08 05:26:00;;;;;;;;;;;;;;;;;;6127021;23;20296;-79
2023/03/08 05:28:25;;;;;;;;;;;;;;;;;;6102739;23;20401;-79
2023/03/08 05:30:51;;;;;;;;;;;;;;;;;;6127623;23;19920;-80
2023/03/08 05:33:16;;;;;;;;;;;;;;;;;;6127523;23;19935;-79
2023/03/08 05:35:42;;;;;;;;;;;;;;;;;;6127784;23;20275;-80
2023/03/08 05:38:07;;;;;;;;;;;;;;;;;;6127520;23;19909;-80
2023/03/08 05:40:33;;;;;;;;;;;;;;;;;;6126942;23;19984;-80
2023/03/08 05:42:59;;;;;;;;;;;;;;;;;;6127228;23;19909;-79
2023/03/08 05:45:25;;;;;;;;;;;;;;;;;;6126790;23;19909;-79
2023/03/08 05:47:51;;;;;;;;;;;;;;;;;;6126867;23;19908;-80
2023/03/08 05:50:16;;;;;;;;;;;;;;;;;;6126359;23;19920;-79
2023/03/08 05:52:44;;;;;;;;;;;;;;;;;;6128027;23;19913;-79
2023/03/08 05:55:13;;;;;;;;;;;;;;;;;;6126627;23;19920;-80
2023/03/08 05:57:40;;;;;;;;;;;;;;;;;;6128240;23;20327;-79
2023/03/08 06:00:06;;;;;;;;;;;;;;;;;;6129025;23;19912;-80
2023/03/08 06:02:41;;;;;;;;;;;;;;;;;;6127023;23;19913;-80
2023/03/08 06:05:06;;;;;;;;;;;;;;;;;;6118576;23;20393;-77
2023/03/08 06:07:31;;;;;;;;;;;;;;;;;;6156281;23;19909;-76
2023/03/08 06:10:04;;;;;;;;;;;;;;;;;;6133568;23;20020;-77
2023/03/08 06:12:29;;;;;;;;;;;;;;;;;;6157434;23;19909;-76
2023/03/08 06:14:58;;;;;;;;;;;;;;;;;;6109489;23;19920;-77
2023/03/08 06:17:26;;;;;;;;;;;;;;;;;;6161371;23;19909;-77
2023/03/08 06:19:53;;;;;;;;;;;;;;;;;;6158468;23;19995;-77
2023/03/08 06:22:19;;;;;;;;;;;;;;;;;;6158003;23;19909;-77
2023/03/08 06:24:48;;;;;;;;;;;;;;;;;;6135436;23;19908;-76
2023/03/08 06:27:15;;;;;;;;;;;;;;;;;;6165051;23;19930;-76
2023/03/08 06:29:41;;;;;;;;;;;;;;;;;;6146404;23;19932;-76
2023/03/08 06:32:07;;;;;;;;;;;;;;;;;;6172630;23;19932;-77
2023/03/08 06:34:32;;;;;;;;;;;;;;;;;;6176619;23;19908;-77
2023/03/08 06:36:58;;;;;;;;;;;;;;;;;;6174938;23;19935;-76
2023/03/08 06:39:24;;;;;;;;;;;;;;;;;;6149555;23;19920;-77
2023/03/08 06:41:50;;;;;;;;;;;;;;;;;;6174053;23;19909;-77
2023/03/08 06:44:15;;;;;;;;;;;;;;;;;;6174413;23;19909;-76
2023/03/08 06:46:41;;;;;;;;;;;;;;;;;;6171140;23;19908;-76
2023/03/08 06:49:06;;;;;;;;;;;;;;;;;;6146063;23;19909;-77
2023/03/08 06:51:33;;;;;;;;;;;;;;;;;;6160939;23;19948;-76
2023/03/08 06:53:58;;;;;;;;;;;;;;;;;;6159482;23;20368;-77
2023/03/08 06:56:26;;;;;;;;;;;;;;;;;;6160494;23;19987;-76
2023/03/08 06:58:52;;;;;;;;;;;;;;;;;;6156248;23;20330;-76
2023/03/08 07:01:17;;;;;;;;;;;;;;;;;;6157386;23;19963;-76
2023/03/08 07:03:44;;;;;;;;;;;;;;;;;;6156707;23;19909;-77
2023/03/08 07:06:11;;;;;;;;;;;;;;;;;;6155989;23;20111;-77
2023/03/08 07:08:37;;;;;;;;;;;;;;;;;;6163638;23;19912;-77
2023/03/08 07:11:02;;;;;;;;;;;;;;;;;;6160939;23;19912;-77
2023/03/08 07:13:28;;;;;;;;;;;;;;;;;;6159974;23;19912;-76
2023/03/08 07:15:54;;;;;;;;;;;;;;;;;;6159750;23;19928;-76
2023/03/08 07:18:19;;;;;;;;;;;;;;;;;;6159118;23;19980;-77
2023/03/08 07:20:44;;;;;;;;;;;;;;;;;;6156154;23;19908;-77
2023/03/08 07:23:10;;;;;;;;;;;;;;;;;;6154970;23;19908;-77
2023/03/08 07:25:35;;;;;;;;;;;;;;;;;;6155785;23;19913;-77
2023/03/08 07:28:01;;;;;;;;;;;;;;;;;;6156164;23;19909;-76
2023/03/08 07:30:26;;;;;;;;;;;;;;;;;;6156522;23;19913;-77
2023/03/08 07:32:51;;;;;;;;;;;;;;;;;;6154684;23;20349;-77
2023/03/08 07:35:17;;;;;;;;;;;;;;;;;;6154608;23;20323;-77
2023/03/08 07:37:42;;;;;;;;;;;;;;;;;;6130426;23;19908;-77
2023/03/08 07:40:08;;;;;;;;;;;;;;;;;;6156007;23;19913;-77
2023/03/08 07:42:33;;;;;;;;;;;;;;;;;;6156587;23;19991;-76
2023/03/08 07:45:09;;;;;;;;;;;;;;;;;;6155239;23;19916;-76
2023/03/08 07:47:35;;;;;;;;;;;;;;;;;;6155857;23;19913;-76
2023/03/08 07:50:00;;;;;;;;;;;;;;;;;;6154206;23;20227;-76
2023/03/08 07:52:26;;;;;;;;;;;;;;;;;;6106075;23;19941;-76
2023/03/08 07:54:51;;;;;;;;;;;;;;;;;;6154534;23;20418;-77
2023/03/08 07:57:16;;;;;;;;;;;;;;;;;;6157375;23;19909;-77
2023/03/08 07:59:42;;;;;;;;;;;;;;;;;;6156147;23;19908;-76
2023/03/08 08:02:07;;;;;;;;;;;;;;;;;;6158890;23;19952;-77
2023/03/08 08:04:33;;;;;;;;;;;;;;;;;;6156386;23;20394;-77
2023/03/08 08:06:59;;;;;;;;;;;;;;;;;;6154724;23;20000;-77
2023/03/08 08:09:24;;;;;;;;;;;;;;;;;;6132381;23;19908;-77
2023/03/08 08:11:50;;;;;;;;;;;;;;;;;;6157695;23;19952;-77
2023/03/08 08:14:15;;;;;;;;;;;;;;;;;;6157937;23;20012;-77
2023/03/08 08:16:41;;;;;;;;;;;;;;;;;;6131739;23;19908;-77
2023/03/08 08:19:07;;;;;;;;;;;;;;;;;;6155775;23;19909;-76
2023/03/08 08:21:33;;;;;;;;;;;;;;;;;;6156452;23;19955;-77
2023/03/08 08:24:00;;;;;;;;;;;;;;;;;;6157732;23;20309;-77
2023/03/08 08:26:26;;;;;;;;;;;;;;;;;;6156516;23;19904;-77
2023/03/08 08:28:53;;;;;;;;;;;;;;;;;;6173520;23;19915;-82
2023/03/08 08:31:18;;;;;;;;;;;;;;;;;;6130420;23;19913;-85
2023/03/08 08:36:25;;;;;;;;;;;;;;;;;;6193209;23;19904;-85
2023/03/08 08:41:33;;;;;;;;;;;;;;;;;;6184800;23;19944;-84
2023/03/08 08:44:00;;;;;;;;;;;;;;;;;;6179056;23;19901;-83
2023/03/08 08:49:01;;;;;;;;;;;;;;;;;;6211859;23;19923;-84
2023/03/08 08:51:26;;;;;;;;;;;;;;;;;;6186844;23;19921;-81
2023/03/08 08:53:53;;;;;;;;;;;;;;;;;;6147597;23;19928;-82
2023/03/08 08:56:21;;;;;;;;;;;;;;;;;;6154646;23;19897;-83
2023/03/08 08:58:50;;;;;;;;;;;;;;;;;;6107703;23;19927;-84
2023/03/08 09:06:34;;;;;;;;;;;;;;;;;;6175829;23;19904;-84
2023/03/08 09:19:35;;;;;;;;;;;;;;;;;;6100392;23;20076;-81
2023/03/08 09:44:18;;;;;;;;;;;;;;;;;;6189658;23;19936;-83
2023/03/08 09:46:48;;;;;;;;;;;;;;;;;;6186879;23;19919;-83
2023/03/08 09:49:17;;;;;;;;;;;;;;;;;;6204710;23;19904;-83
2023/03/08 09:51:42;;;;;;;;;;;;;;;;;;6195817;23;19952;-81
2023/03/08 09:54:16;;;;;;;;;;;;;;;;;;6183628;23;19952;-82
2023/03/08 10:02:12;;;;;;;;;;;;;;;;;;6128415;23;20310;-83
2023/03/08 10:04:45;;;;;;;;;;;;;;;;;;6117262;23;19921;-83
2023/03/08 10:07:16;;;;;;;;;;;;;;;;;;6183563;23;19904;-82
2023/03/08 10:09:43;;;;;;;;;;;;;;;;;;6146187;23;19904;-80
2023/03/08 10:12:15;;;;;;;;;;;;;;;;;;6185154;23;19904;-83
2023/03/08 10:14:53;;;;;;;;;;;;;;;;;;6209587;23;19921;-82
2023/03/08 10:17:21;;;;;;;;;;;;;;;;;;6164619;23;19923;-82
2023/03/08 10:22:41;;;;;;;;;;;;;;;;;;6198535;23;19924;-79
2023/03/08 10:25:20;;;;;;;;;;;;;;;;;;6189416;23;19927;-81
2023/03/08 10:27:45;;;;;;;;;;;;;;;;;;6201516;23;19936;-81
2023/03/08 10:30:10;;;;;;;;;;;;;;;;;;6200302;23;19964;-82
2023/03/08 10:32:36;;;;;;;;;;;;;;;;;;6178836;23;19948;-82
2023/03/08 10:35:02;;;;;;;;;;;;;;;;;;6178783;23;19909;-82
2023/03/08 10:37:27;;;;;;;;;;;;;;;;;;6203298;23;19948;-82
2023/03/08 10:39:53;;;;;;;;;;;;;;;;;;6206672;23;19931;-83
2023/03/08 10:42:20;;;;;;;;;;;;;;;;;;6179309;23;19915;-82
2023/03/08 10:44:45;;;;;;;;;;;;;;;;;;6201713;23;19964;-82
2023/03/08 10:47:10;;;;;;;;;;;;;;;;;;6201363;23;19943;-82
2023/03/08 10:49:36;;;;;;;;;;;;;;;;;;6199308;23;19909;-82
2023/03/08 10:52:01;;;;;;;;;;;;;;;;;;6173632;23;20426;-82
2023/03/08 10:54:27;;;;;;;;;;;;;;;;;;6167231;23;20388;-81
2023/03/08 10:56:52;;;;;;;;;;;;;;;;;;6194892;23;19908;-81
2023/03/08 10:59:19;;;;;;;;;;;;;;;;;;6197574;23;19908;-82
2023/03/08 11:01:45;;;;;;;;;;;;;;;;;;6176651;23;19908;-82
2023/03/08 11:04:10;;;;;;;;;;;;;;;;;;6207505;23;19912;-81
2023/03/08 11:06:36;;;;;;;;;;;;;;;;;;6174220;23;19970;-82
2023/03/08 11:09:01;;;;;;;;;;;;;;;;;;6177047;23;19995;-79
2023/03/08 11:11:27;;;;;;;;;;;;;;;;;;6206416;23;19922;-82
2023/03/08 11:13:52;;;;;;;;;;;;;;;;;;6181074;23;19932;-81
2023/03/08 11:16:17;;;;;;;;;;;;;;;;;;6206454;23;19912;-81
2023/03/08 11:18:43;;;;;;;;;;;;;;;;;;6209167;23;19924;-83
2023/03/08 11:21:08;;;;;;;;;;;;;;;;;;6211069;23;19908;-82
2023/03/08 11:23:34;;;;;;;;;;;;;;;;;;6196095;23;19916;-81
2023/03/08 11:25:59;;;;;;;;;;;;;;;;;;6195984;23;20318;-81
2023/03/08 11:28:25;;;;;;;;;;;;;;;;;;6194389;23;19908;-82
2023/03/08 11:30:50;;;;;;;;;;;;;;;;;;6193459;23;19909;-82
2023/03/08 11:33:16;;;;;;;;;;;;;;;;;;6197438;23;19915;-82
2023/03/08 11:35:41;;;;;;;;;;;;;;;;;;6199290;23;20401;-82
2023/03/08 11:38:07;;;;;;;;;;;;;;;;;;6204727;23;19931;-82
2023/03/08 11:40:32;;;;;;;;;;;;;;;;;;6206118;23;19920;-82
2023/03/08 11:42:58;;;;;;;;;;;;;;;;;;6207849;23;19892;-82
2023/03/08 11:45:23;;;;;;;;;;;;;;;;;;6206373;23;20382;-82
2023/03/08 11:47:50;;;;;;;;;;;;;;;;;;6203856;23;19966;-82
2023/03/08 11:50:15;;;;;;;;;;;;;;;;;;6201908;23;19915;-83
2023/03/08 11:52:41;;;;;;;;;;;;;;;;;;6201979;23;19952;-82
2023/03/08 11:55:06;;;;;;;;;;;;;;;;;;6203209;23;20159;-82
2023/03/08 11:57:33;;;;;;;;;;;;;;;;;;6201239;23;20250;-82
2023/03/08 12:00:11;;;;;;;;;;;;;;;;;;6205183;23;19908;-82
2023/03/08 12:02:38;;;;;;;;;;;;;;;;;;6207654;23;19900;-82
2023/03/08 12:10:27;;;;;;;;;;;;;;;;;;6200511;23;19904;-84
2023/03/08 12:12:53;;;;;;;;;;;;;;;;;;6189739;23;19896;-84
2023/03/08 12:15:22;;;;;;;;;;;;;;;;;;6154380;23;19913;-84
2023/03/08 12:20:29;;;;;;;;;;;;;;;;;;6132002;23;19921;-84
2023/03/08 12:22:56;;;;;;;;;;;;;;;;;;6184213;23;19904;-83
2023/03/08 12:30:45;;;;;;;;;;;;;;;;;;6158984;23;20712;-83
2023/03/08 12:33:14;;;;;;;;;;;;;;;;;;6189292;23;19892;-83
2023/03/08 12:35:40;;;;;;;;;;;;;;;;;;6213869;23;19919;-85
2023/03/08 12:38:06;;;;;;;;;;;;;;;;;;6214804;23;19940;-84
2023/03/08 12:40:32;;;;;;;;;;;;;;;;;;6188944;23;19897;-84
2023/03/08 12:43:00;;;;;;;;;;;;;;;;;;6214662;23;19896;-85
2023/03/08 12:45:26;;;;;;;;;;;;;;;;;;6136823;23;19957;-84
2023/03/08 12:47:52;;;;;;;;;;;;;;;;;;6129589;23;19897;-85
2023/03/08 12:50:20;;;;;;;;;;;;;;;;;;6154771;23;19941;-80
2023/03/08 12:52:46;;;;;;;;;;;;;;;;;;6228562;23;19920;-80
2023/03/08 12:55:15;;;;;;;;;;;;;;;;;;6188999;23;19904;-83
2023/03/08 12:57:42;;;;;;;;;;;;;;;;;;6185367;23;19912;-82
2023/03/08 13:00:13;;;;;;;;;;;;;;;;;;6186392;23;19904;-84
2023/03/08 13:02:40;;;;;;;;;;;;;;;;;;6180421;23;19928;-83
2023/03/08 13:08:33;;;;;;;;;;;;;;;;;;6153863;23;19908;-82
2023/03/08 13:11:03;;;;;;;;;;;;;;;;;;6210407;23;19928;-83
2023/03/08 13:13:31;;;;;;;;;;;;;;;;;;6180930;23;19916;-83
2023/03/08 13:15:59;;;;;;;;;;;;;;;;;;6211564;23;19940;-82
2023/03/08 13:18:28;;;;;;;;;;;;;;;;;;6187065;23;19908;-82
2023/03/08 13:20:56;;;;;;;;;;;;;;;;;;6187258;23;19909;-84
2023/03/08 13:23:41;;;;;;;;;;;;;;;;;;6212951;23;19928;-84
2023/03/08 13:26:10;;;;;;;;;;;;;;;;;;6213683;23;19904;-83
2023/03/08 13:41:59;;;;;;;;;;;;;;;;;;6147959;23;19927;-78
2023/03/08 13:47:06;;;;;;;;;;;;;;;;;;6164613;23;19904;-83
2023/03/08 13:49:32;;;;;;;;;;;;;;;;;;6216220;23;19896;-84
2023/03/08 13:52:04;;;;;;;;;;;;;;;;;;6216113;23;19980;-83
2023/03/08 13:54:30;;;;;;;;;;;;;;;;;;6215628;23;19909;-83
2023/03/08 13:56:56;;;;;;;;;;;;;;;;;;6192053;23;19944;-84
2023/03/08 13:59:25;;;;;;;;;;;;;;;;;;6161027;23;19896;-83
2023/03/08 14:04:31;;;;;;;;;;;;;;;;;;6178105;23;19904;-80
2023/03/08 14:06:57;;;;;;;;;;;;;;;;;;6161651;23;19905;-84
2023/03/08 14:09:22;;;;;;;;;;;;;;;;;;6215768;23;19927;-84
2023/03/08 14:11:48;;;;;;;;;;;;;;;;;;6190292;23;19920;-85
2023/03/08 14:14:14;;;;;;;;;;;;;;;;;;6214719;23;19913;-82
2023/03/08 14:16:40;;;;;;;;;;;;;;;;;;6189868;23;20100;-85
2023/03/08 14:19:06;;;;;;;;;;;;;;;;;;6215058;23;19904;-85
2023/03/08 14:21:34;;;;;;;;;;;;;;;;;;6172730;23;19916;-82
2023/03/08 14:24:00;;;;;;;;;;;;;;;;;;6159342;23;19909;-82
2023/03/08 14:26:27;;;;;;;;;;;;;;;;;;6160624;23;19896;-84
2023/03/08 14:28:55;;;;;;;;;;;;;;;;;;6134738;23;19892;-85
2023/03/08 14:31:22;;;;;;;;;;;;;;;;;;6157058;23;19924;-82
2023/03/08 14:33:48;;;;;;;;;;;;;;;;;;6133753;23;19943;-84
2023/03/08 14:36:17;;;;;;;;;;;;;;;;;;6136109;23;19912;-82
2023/03/08 14:38:48;;;;;;;;;;;;;;;;;;6125090;23;19924;-83
2023/03/08 14:41:15;;;;;;;;;;;;;;;;;;6153801;23;19932;-83
2023/03/08 14:43:41;;;;;;;;;;;;;;;;;;6153183;23;20153;-85
2023/03/08 14:46:08;;;;;;;;;;;;;;;;;;6105298;23;19933;-83
2023/03/08 14:48:33;;;;;;;;;;;;;;;;;;6154173;23;19912;-83
2023/03/08 14:51:02;;;;;;;;;;;;;;;;;;6134501;23;19921;-83
2023/03/08 14:53:28;;;;;;;;;;;;;;;;;;6130736;23;19897;-84
2023/03/08 14:55:57;;;;;;;;;;;;;;;;;;6177728;23;19913;-81
2023/03/08 14:58:22;;;;;;;;;;;;;;;;;;6178002;23;19965;-83
2023/03/08 15:00:53;;;;;;;;;;;;;;;;;;6136932;23;19904;-84
2023/03/08 15:03:22;;;;;;;;;;;;;;;;;;6183549;23;19916;-84
2023/03/08 15:05:48;;;;;;;;;;;;;;;;;;6135742;23;19896;-83
2023/03/08 15:11:03;;;;;;;;;;;;;;;;;;6180837;23;19924;-84
2023/03/08 15:13:29;;;;;;;;;;;;;;;;;;6189010;23;19898;-84
2023/03/08 15:15:54;;;;;;;;;;;;;;;;;;6188187;23;19904;-83
2023/03/08 15:18:21;;;;;;;;;;;;;;;;;;6184352;23;19901;-83
2023/03/08 15:20:48;;;;;;;;;;;;;;;;;;6158739;23;19916;-83
2023/03/08 15:23:14;;;;;;;;;;;;;;;;;;6158802;23;19909;-83
2023/03/08 15:25:41;;;;;;;;;;;;;;;;;;6159769;23;19913;-83
2023/03/08 15:28:07;;;;;;;;;;;;;;;;;;6159379;23;19920;-84
2023/03/08 15:30:34;;;;;;;;;;;;;;;;;;6159603;23;19900;-84
2023/03/08 15:33:14;;;;;;;;;;;;;;;;;;6184443;23;19897;-85
2023/03/08 15:38:25;;;;;;;;;;;;;;;;;;6144016;23;19921;-80
2023/03/08 15:40:51;;;;;;;;;;;;;;;;;;6158042;23;19908;-80
2023/03/08 15:43:16;;;;;;;;;;;;;;;;;;6157968;23;19919;-80
2023/03/08 15:45:42;;;;;;;;;;;;;;;;;;6135887;23;20011;-80
2023/03/08 15:48:07;;;;;;;;;;;;;;;;;;6126485;23;19909;-80
2023/03/08 15:50:33;;;;;;;;;;;;;;;;;;6128799;23;20292;-80
2023/03/08 15:52:58;;;;;;;;;;;;;;;;;;6129399;23;19909;-78
2023/03/08 15:55:24;;;;;;;;;;;;;;;;;;6128341;23;19908;-79
2023/03/08 15:57:49;;;;;;;;;;;;;;;;;;6136495;23;19928;-80
2023/03/08 16:00:20;;;;;;;;;;;;;;;;;;6113029;23;19960;-79
2023/03/08 16:02:46;;;;;;;;;;;;;;;;;;6157739;23;19912;-79
2023/03/08 16:05:11;;;;;;;;;;;;;;;;;;6142885;23;19909;-79
2023/03/08 16:07:37;;;;;;;;;;;;;;;;;;6130790;23;19913;-79
2023/03/08 16:10:02;;;;;;;;;;;;;;;;;;6138035;23;19944;-79
2023/03/08 16:12:27;;;;;;;;;;;;;;;;;;6138791;23;19909;-80
2023/03/08 16:14:56;;;;;;;;;;;;;;;;;;6081975;23;19916;-79
2023/03/08 16:17:22;;;;;;;;;;;;;;;;;;6104349;23;19916;-78
2023/03/08 16:19:47;;;;;;;;;;;;;;;;;;6130039;23;19984;-78
2023/03/08 16:22:13;;;;;;;;;;;;;;;;;;6129497;23;20519;-79
2023/03/08 16:24:38;;;;;;;;;;;;;;;;;;6129407;23;19908;-80
2023/03/08 16:27:03;;;;;;;;;;;;;;;;;;6127771;23;19916;-79
2023/03/08 16:29:29;;;;;;;;;;;;;;;;;;6125909;23;20460;-78
2023/03/08 16:31:55;;;;;;;;;;;;;;;;;;6128439;23;19913;-79
2023/03/08 16:34:21;;;;;;;;;;;;;;;;;;6105636;23;19909;-79
2023/03/08 16:36:46;;;;;;;;;;;;;;;;;;6102396;23;19916;-79
2023/03/08 16:39:12;;;;;;;;;;;;;;;;;;6128561;23;20425;-79
2023/03/08 16:41:37;;;;;;;;;;;;;;;;;;6127288;23;19913;-79
2023/03/08 16:44:02;;;;;;;;;;;;;;;;;;6127438;23;19912;-80
2023/03/08 16:46:28;;;;;;;;;;;;;;;;;;6125539;23;20247;-79
2023/03/08 16:48:53;;;;;;;;;;;;;;;;;;6127930;23;19905;-79
2023/03/08 16:51:19;;;;;;;;;;;;;;;;;;6128070;23;20216;-80
2023/03/08 16:53:44;;;;;;;;;;;;;;;;;;6101644;23;19909;-80
2023/03/08 16:56:10;;;;;;;;;;;;;;;;;;6125446;23;19941;-79
2023/03/08 16:58:35;;;;;;;;;;;;;;;;;;6126363;23;19991;-79
2023/03/08 17:01:01;;;;;;;;;;;;;;;;;;6124861;23;19909;-79
2023/03/08 17:03:26;;;;;;;;;;;;;;;;;;6126055;23;20236;-79
2023/03/08 17:05:51;;;;;;;;;;;;;;;;;;6125369;23;19909;-79
2023/03/08 17:08:17;;;;;;;;;;;;;;;;;;6101068;23;19916;-79
2023/03/08 17:10:42;;;;;;;;;;;;;;;;;;6126165;23;19916;-80
2023/03/08 17:13:07;;;;;;;;;;;;;;;;;;6103055;23;19909;-80
2023/03/08 17:15:33;;;;;;;;;;;;;;;;;;6128262;23;19909;-79
2023/03/08 17:17:58;;;;;;;;;;;;;;;;;;6127001;23;19909;-77
2023/03/08 17:20:24;;;;;;;;;;;;;;;;;;6126562;23;19915;-79
2023/03/08 17:22:49;;;;;;;;;;;;;;;;;;6126528;23;20083;-79
2023/03/08 17:25:14;;;;;;;;;;;;;;;;;;6128040;23;19913;-78
2023/03/08 17:27:40;;;;;;;;;;;;;;;;;;6126670;23;19948;-80
2023/03/08 17:30:05;;;;;;;;;;;;;;;;;;6128896;23;19909;-79
2023/03/08 17:32:31;;;;;;;;;;;;;;;;;;6128158;23;20251;-79
2023/03/08 17:34:56;;;;;;;;;;;;;;;;;;6129112;23;19909;-79
2023/03/08 17:37:22;;;;;;;;;;;;;;;;;;6131614;23;19916;-80
2023/03/08 17:39:47;;;;;;;;;;;;;;;;;;6147676;23;19937;-79
2023/03/08 17:42:13;;;;;;;;;;;;;;;;;;6153278;23;19913;-80
2023/03/08 17:44:38;;;;;;;;;;;;;;;;;;6152840;23;19905;-80
2023/03/08 17:47:03;;;;;;;;;;;;;;;;;;6153745;23;19970;-79
2023/03/08 17:49:29;;;;;;;;;;;;;;;;;;6150978;23;19913;-80
2023/03/08 17:51:54;;;;;;;;;;;;;;;;;;6155235;23;19905;-80
2023/03/08 17:54:21;;;;;;;;;;;;;;;;;;6154176;23;19913;-79
2023/03/08 17:56:46;;;;;;;;;;;;;;;;;;6137514;23;19916;-79
2023/03/08 17:59:12;;;;;;;;;;;;;;;;;;6131949;23;19913;-80
2023/03/08 18:01:37;;;;;;;;;;;;;;;;;;6130810;23;19913;-79
2023/03/08 18:04:02;;;;;;;;;;;;;;;;;;6126719;23;19917;-79
2023/03/08 18:06:28;;;;;;;;;;;;;;;;;;6129205;23;19909;-80
2023/03/08 18:08:53;;;;;;;;;;;;;;;;;;6127623;23;19909;-79
2023/03/08 18:11:19;;;;;;;;;;;;;;;;;;6130117;23;19917;-79
2023/03/08 18:13:44;;;;;;;;;;;;;;;;;;6127727;23;19932;-80
2023/03/08 18:16:09;;;;;;;;;;;;;;;;;;6128265;23;19916;-78
2023/03/08 18:18:35;;;;;;;;;;;;;;;;;;6128021;23;19905;-80